createdAt,value
2018-09-15T12:45:41.692Z,25.60
2018-09-15T12:48:10.180Z,25.50
2018-09-15T12:50:38.947Z,25.20
2018-09-15T12:53:08.253Z,25.20
2018-09-15T12:55:36.603Z,25.30
2018-09-15T12:58:04.995Z,25.30
2018-09-15T13:00:33.620Z,25.30
2018-09-15T13:03:02.027Z,25.00
2018-09-15T13:05:31.494Z,24.50
2018-09-15T13:08:00.133Z,24.10
2018-09-15T13:10:28.619Z,23.90
2018-09-15T13:12:57.028Z,23.70
2018-09-15T13:15:30.572Z,23.50
2018-09-15T13:17:59.036Z,23.30
2018-09-15T13:20:30.487Z,23.00
2018-09-15T13:23:02.639Z,22.80
2018-09-15T13:25:33.447Z,22.60
2018-09-15T13:28:08.017Z,22.60
2018-09-15T13:30:36.400Z,22.60
2018-09-15T13:33:05.239Z,22.70
2018-09-15T13:35:34.589Z,22.70
2018-09-15T13:38:03.068Z,22.70
2018-09-15T13:40:31.555Z,22.60
2018-09-15T13:43:00.696Z,22.40
2018-09-15T13:45:29.151Z,22.10
2018-09-15T13:48:16.967Z,21.90
2018-09-15T13:50:45.384Z,21.70
2018-09-15T13:53:14.518Z,21.50
2018-09-15T13:55:42.928Z,21.50
2018-09-15T13:58:12.640Z,21.50
2018-09-15T14:00:41.713Z,21.60
2018-09-15T14:03:13.960Z,21.70
2018-09-15T14:05:42.840Z,21.90
2018-09-15T14:08:11.247Z,22.10
2018-09-15T14:10:40.012Z,22.10
2018-09-15T14:13:08.780Z,22.10
2018-09-15T14:15:37.189Z,22.00
2018-09-15T14:18:07.732Z,21.80
2018-09-15T14:20:36.202Z,21.70
2018-09-15T14:23:04.565Z,21.40
2018-09-15T14:25:32.987Z,21.30
2018-09-15T14:28:07.440Z,21.20
2018-09-15T14:30:36.542Z,21.00
2018-09-15T14:33:04.924Z,20.90
2018-09-15T14:35:33.712Z,20.80
2018-09-15T14:38:02.369Z,20.70
2018-09-15T14:40:45.976Z,20.50
2018-09-15T14:43:15.412Z,20.40
2018-09-15T14:45:43.840Z,20.30
2018-09-15T14:48:12.277Z,20.20
2018-09-15T14:50:40.723Z,20.10
2018-09-15T14:53:25.988Z,20.10
2018-09-15T14:56:00.108Z,20.10
2018-09-15T14:58:35.288Z,20.20
2018-09-15T15:01:03.847Z,20.20
2018-09-15T15:03:32.208Z,20.20
2018-09-15T15:06:01.412Z,20.30
2018-09-15T15:08:29.816Z,20.40
2018-09-15T15:11:10.119Z,20.40
2018-09-15T15:13:38.504Z,20.40
2018-09-15T15:16:14.848Z,20.30
2018-09-15T15:18:43.539Z,20.30
2018-09-15T15:21:11.971Z,20.40
2018-09-15T15:23:41.001Z,20.30
2018-09-15T15:26:09.793Z,20.30
2018-09-15T15:28:38.320Z,20.30
2018-09-15T15:31:06.640Z,20.30
2018-09-15T15:33:35.041Z,20.20
2018-09-15T15:39:02.511Z,20.20
2018-09-15T15:44:15.390Z,20.10
2018-09-15T15:46:44.053Z,20.10
2018-09-15T15:49:12.823Z,20.00
2018-09-15T15:51:41.616Z,20.00
2018-09-15T15:54:10.774Z,20.00
2018-09-15T15:56:39.169Z,20.00
2018-09-15T15:59:07.853Z,19.90
2018-09-15T16:01:36.355Z,19.90
2018-09-15T16:04:04.765Z,19.80
2018-09-15T16:06:33.391Z,19.70
2018-09-15T16:09:02.103Z,19.70
2018-09-15T16:11:30.522Z,19.60
2018-09-15T16:13:58.924Z,19.50
2018-09-15T16:16:31.963Z,19.40
2018-09-15T16:19:00.560Z,19.40
2018-09-15T16:21:29.529Z,19.40
2018-09-15T16:23:57.971Z,19.40
2018-09-15T16:26:26.382Z,19.40
2018-09-15T16:28:55.444Z,19.40
2018-09-15T16:31:23.872Z,19.40
2018-09-15T16:33:52.820Z,19.30
2018-09-15T16:36:21.223Z,19.20
2018-09-15T16:38:50.063Z,19.10
2018-09-15T16:41:18.443Z,19.00
2018-09-15T16:43:46.992Z,18.90
2018-09-15T16:46:15.572Z,18.80
2018-09-15T16:48:44.008Z,18.60
2018-09-15T16:51:12.483Z,18.50
2018-09-15T16:53:41.292Z,18.40
2018-09-15T16:56:10.172Z,18.20
2018-09-15T16:58:38.603Z,18.10
2018-09-15T17:01:07.001Z,18.00
2018-09-15T17:03:35.443Z,17.90
2018-09-15T17:06:03.900Z,17.70
2018-09-15T17:08:32.501Z,17.60
2018-09-15T17:11:01.036Z,17.50
2018-09-15T17:13:29.520Z,17.30
2018-09-15T17:15:58.106Z,17.10
2018-09-15T17:18:26.502Z,16.90
2018-09-15T17:20:55.010Z,16.80
2018-09-15T17:23:23.508Z,16.70
2018-09-15T17:25:51.974Z,16.50
2018-09-15T17:28:20.356Z,16.30
2018-09-15T17:30:49.106Z,16.20
2018-09-15T17:33:18.240Z,16.00
2018-09-15T17:35:46.735Z,15.90
2018-09-15T17:38:15.511Z,15.70
2018-09-15T17:40:44.760Z,15.60
2018-09-15T17:43:13.348Z,15.50
2018-09-15T17:45:42.698Z,15.30
2018-09-15T17:48:11.381Z,15.20
2018-09-15T17:50:39.812Z,15.10
2018-09-15T17:53:08.476Z,15.00
2018-09-15T17:55:36.878Z,14.90
2018-09-15T17:58:05.380Z,14.80
2018-09-15T18:00:33.804Z,14.70
2018-09-15T18:03:02.229Z,14.60
2018-09-15T18:05:30.631Z,14.50
2018-09-15T18:07:59.640Z,14.40
2018-09-15T18:10:28.080Z,14.30
2018-09-15T18:12:57.335Z,14.20
2018-09-15T18:15:25.815Z,14.10
2018-09-15T18:17:54.176Z,14.00
2018-09-15T18:20:22.675Z,14.00
2018-09-15T18:22:51.063Z,13.90
2018-09-15T18:25:19.912Z,13.80
2018-09-15T18:27:48.316Z,13.70
2018-09-15T18:30:16.783Z,13.60
2018-09-15T18:32:45.365Z,13.50
2018-09-15T18:35:14.144Z,13.50
2018-09-15T18:37:45.743Z,13.40
2018-09-15T18:40:15.225Z,13.30
2018-09-15T18:42:43.755Z,13.20
2018-09-15T18:45:12.282Z,13.10
2018-09-15T18:47:41.675Z,13.00
2018-09-15T18:50:10.732Z,12.90
2018-09-15T18:52:39.291Z,12.90
2018-09-15T18:55:07.841Z,12.80
2018-09-15T18:57:36.552Z,12.70
2018-09-15T19:00:04.984Z,12.60
2018-09-15T19:02:33.393Z,12.60
2018-09-15T19:05:02.326Z,12.50
2018-09-15T19:07:30.768Z,12.40
2018-09-15T19:09:59.663Z,12.30
2018-09-15T19:12:29.300Z,12.20
2018-09-15T19:14:57.948Z,12.20
2018-09-15T19:17:29.491Z,12.10
2018-09-15T19:19:57.915Z,12.10
2018-09-15T19:22:26.316Z,12.00
2018-09-15T19:24:54.824Z,11.90
2018-09-15T19:27:23.500Z,11.80
2018-09-15T19:29:51.904Z,11.80
2018-09-15T19:32:20.291Z,11.70
2018-09-15T19:34:48.833Z,11.70
2018-09-15T19:37:17.352Z,11.70
2018-09-15T19:39:45.857Z,11.60
2018-09-15T19:42:14.481Z,11.60
2018-09-15T19:44:42.848Z,11.50
2018-09-15T19:47:11.379Z,11.50
2018-09-15T19:49:48.117Z,11.50
2018-09-15T19:52:16.635Z,11.40
2018-09-15T19:54:45.192Z,11.30
2018-09-15T19:57:13.942Z,11.30
2018-09-15T19:59:42.994Z,11.20
2018-09-15T20:02:12.095Z,11.20
2018-09-15T20:04:40.791Z,11.20
2018-09-15T20:07:09.539Z,11.10
2018-09-15T20:09:38.565Z,11.10
2018-09-15T20:12:07.099Z,11.10
2018-09-15T20:14:35.935Z,11.00
2018-09-15T20:17:03.352Z,10.90
2018-09-15T20:19:30.949Z,10.90
2018-09-15T20:21:58.396Z,10.80
2018-09-15T20:24:26.839Z,10.80
2018-09-15T20:26:55.424Z,10.80
2018-09-15T20:32:26.595Z,10.70
2018-09-15T20:34:55.525Z,10.70
2018-09-15T20:37:23.999Z,10.60
2018-09-15T20:39:53.184Z,10.50
2018-09-15T20:42:21.671Z,10.50
2018-09-15T20:44:50.124Z,10.50
2018-09-15T20:47:18.519Z,10.40
2018-09-15T20:49:46.964Z,10.40
2018-09-15T20:52:15.660Z,10.30
2018-09-15T20:54:44.340Z,10.40
2018-09-15T20:57:13.630Z,10.30
2018-09-15T20:59:42.899Z,10.30
2018-09-15T21:02:12.225Z,10.30
2018-09-15T21:04:42.231Z,10.20
2018-09-15T21:07:10.638Z,10.20
2018-09-15T21:09:57.156Z,10.20
2018-09-15T21:12:39.125Z,10.20
2018-09-15T21:15:07.659Z,10.10
2018-09-15T21:20:13.711Z,10.00
2018-09-15T21:22:45.620Z,10.00
2018-09-15T21:25:14.480Z,9.90
2018-09-15T21:27:43.478Z,9.90
2018-09-15T21:30:14.134Z,9.90
2018-09-15T21:32:42.635Z,9.80
2018-09-15T21:35:11.079Z,9.80
2018-09-15T21:37:39.899Z,9.80
2018-09-15T21:40:25.851Z,9.80
2018-09-15T21:42:54.288Z,9.70
2018-09-15T21:45:23.065Z,9.70
2018-09-15T21:47:52.314Z,9.60
2018-09-15T21:50:20.727Z,9.60
2018-09-15T21:52:49.456Z,9.60
2018-09-15T21:55:17.905Z,9.50
2018-09-15T21:57:46.803Z,9.50
2018-09-15T22:00:15.312Z,9.50
2018-09-15T22:02:43.944Z,9.40
2018-09-15T22:05:12.630Z,9.40
2018-09-15T22:07:41.135Z,9.40
2018-09-15T22:10:10.164Z,9.30
2018-09-15T22:12:39.489Z,9.30
2018-09-15T22:15:15.319Z,9.30
2018-09-15T22:18:00.088Z,9.30
2018-09-15T22:20:28.484Z,9.30
2018-09-15T22:22:57.240Z,9.20
2018-09-15T22:25:25.682Z,9.20
2018-09-15T22:27:54.105Z,9.20
2018-09-15T22:30:41.156Z,9.10
2018-09-15T22:33:09.529Z,9.10
2018-09-15T22:35:43.671Z,9.10
2018-09-15T22:38:12.436Z,9.10
2018-09-15T22:40:40.886Z,9.00
2018-09-15T22:43:14.228Z,9.10
2018-09-15T22:48:27.314Z,9.00
2018-09-15T22:50:55.785Z,9.00
2018-09-15T22:53:24.209Z,9.00
2018-09-15T22:58:52.416Z,8.90
2018-09-15T23:01:20.840Z,8.90
2018-09-15T23:03:49.344Z,8.80
2018-09-15T23:06:17.795Z,8.80
2018-09-15T23:08:46.175Z,8.80
2018-09-15T23:11:14.644Z,8.80
2018-09-15T23:13:43.788Z,8.80
2018-09-15T23:18:56.816Z,8.80
2018-09-15T23:21:25.215Z,8.70
2018-09-15T23:23:53.955Z,8.80
2018-09-15T23:26:22.492Z,8.80
2018-09-15T23:28:51.652Z,8.70
2018-09-15T23:31:20.273Z,8.70
2018-09-15T23:33:48.813Z,8.70
2018-09-15T23:36:17.292Z,8.70
2018-09-15T23:38:46.395Z,8.70
2018-09-15T23:41:14.819Z,8.70
2018-09-15T23:43:43.596Z,8.70
2018-09-15T23:46:12.816Z,8.60
2018-09-15T23:48:41.268Z,8.60
2018-09-15T23:51:09.722Z,8.60
2018-09-15T23:53:38.456Z,8.60
2018-09-15T23:56:06.833Z,8.50
2018-09-15T23:58:35.226Z,8.50
